< < Back
Terminal Aerodrome Forecast


Current Version              Previous Versions:   1  2  3  4  5  6  7  8  9  

Terminal Aerodrome Forecast

145
FTUS44 KOHX 241700
TAFCSV
TAF
KCSV 241720Z 2418/2518 VRB03KT P6SM SKC=



Latest METAR

734
SAUS70 KWBC 241700 RRG
MTRCSV
METAR KCSV 241653Z AUTO VRB03KT 10SM CLR 18/03 A3011 RMK AO2 SLP190
T01780033


USA.gov is the U.S. government's official web portal to all federal, state and local government web resources and services.